Hedley, Canada
Current Conditions -  °F | °C
As of 6:00 PM on Wednesday 22 Oct 2014 (Local Time) from CYDC Reporting Station
Rain Showers Rain Showers  
Wind Chill: 48°   Ceiling: 6000
Heat Index: 48°   Visibility: 12mi
Dew Point: 45°   Wind: 0mph
Humidity: 87%   Direction: NA
Pressure: 29.63"   Gusts: NA
Location:  49.35°N, 120.08°W
Report Text: CYDC 230100Z 00000KT 12SM -SHRA FEW020 FEW035 SCT045 OVC060CB 09/07 A2963 RMK ST1CF1SC2CB4 LAST OBS/NEXT 23 1300 UTC SLP034 DENSITY ALT 2400FT
Loading
Personal Weather Stations






























Interactive Weather Map
Tropical Storm Tracking
New forecast layout! Learn more

10-Day Weather Forecast

Advertisements
Track Severe Weather on mobile